PVG8010 LIRN-LEBL
Flight info
| Callsign | PVG8010 |
|---|---|
| Flight time | 1h 42m |
| Altitude | 33000 |
| Route | EDOPA DCT TAGEL DCT BETOT/N0456F340 DCT VAVAX DCT EPIKU DCT GINOX DCT KIFMI/N0441F280 DCT ELVOP DCT MUREN DCT CHELY/N0455F290 M601 VERSO |
| Aircraft | A321/M-SDE3FGHIRWY/LB1 |
Departure
| Time | 2026-05-05 14:50 |
|---|---|
| Airport | Naples International Airport (LIRN) |
Arrival
| Time | 2026-05-05 16:33 |
|---|---|
| Airport | Josep Tarradellas Barcelona-El Prat Airport (LEBL) |
| Time | Latitude | Longitude | Altitude | Speed | Heading |
|---|---|---|---|---|---|
| 2026-05-05 14:16 | 40.87843 | 14.28084 | 295 ft | 0 kts | 140° |
| 2026-05-05 14:42 | 40.87862 | 14.28063 | 299 ft | 4 kts | 139° |
| 2026-05-05 14:42 | 40.87880 | 14.28037 | 298 ft | 4 kts | 114° |
| 2026-05-05 14:42 | 40.87885 | 14.28005 | 300 ft | 4 kts | 71° |
| 2026-05-05 14:43 | 40.87878 | 14.27988 | 299 ft | 1 kts | 51° |
| 2026-05-05 14:43 | 40.87877 | 14.27986 | 299 ft | 0 kts | 51° |
| 2026-05-05 14:45 | 40.87878 | 14.27987 | 299 ft | 1 kts | 51° |
| 2026-05-05 14:45 | 40.87906 | 14.28033 | 299 ft | 10 kts | 51° |
| 2026-05-05 14:46 | 40.87961 | 14.28110 | 295 ft | 13 kts | 41° |
| 2026-05-05 14:46 | 40.87956 | 14.28214 | 291 ft | 13 kts | 97° |
| 2026-05-05 14:46 | 40.87944 | 14.28337 | 289 ft | 20 kts | 97° |
| 2026-05-05 14:46 | 40.87969 | 14.28494 | 286 ft | 14 kts | 24° |
| 2026-05-05 14:47 | 40.88023 | 14.28568 | 284 ft | 17 kts | 53° |
| 2026-05-05 14:47 | 40.88127 | 14.28748 | 280 ft | 29 kts | 53° |
| 2026-05-05 14:47 | 40.88246 | 14.28954 | 275 ft | 28 kts | 52° |
| 2026-05-05 14:47 | 40.88368 | 14.29165 | 269 ft | 30 kts | 52° |
| 2026-05-05 14:48 | 40.88482 | 14.29362 | 264 ft | 27 kts | 53° |
| 2026-05-05 14:48 | 40.88603 | 14.29571 | 258 ft | 30 kts | 52° |
| 2026-05-05 14:48 | 40.88728 | 14.29787 | 252 ft | 25 kts | 52° |
| 2026-05-05 14:48 | 40.88839 | 14.29981 | 246 ft | 28 kts | 52° |
| 2026-05-05 14:49 | 40.88954 | 14.30179 | 239 ft | 25 kts | 53° |
| 2026-05-05 14:49 | 40.89026 | 14.30267 | 236 ft | 10 kts | 6° |
| 2026-05-05 14:49 | 40.89088 | 14.30229 | 234 ft | 11 kts | 321° |
| 2026-05-05 14:49 | 40.89113 | 14.30153 | 235 ft | 10 kts | 245° |
| 2026-05-05 14:50 | 40.89000 | 14.29916 | 244 ft | 68 kts | 239° |
| 2026-05-05 14:50 | 40.88631 | 14.29136 | 266 ft | 130 kts | 238° |
| 2026-05-05 14:50 | 40.88075 | 14.27951 | 502 ft | 159 kts | 240° |
| 2026-05-05 14:50 | 40.87368 | 14.26853 | 1252 ft | 160 kts | 215° |
| 2026-05-05 14:51 | 40.86301 | 14.26545 | 1930 ft | 162 kts | 172° |
| 2026-05-05 14:51 | 40.85202 | 14.26745 | 2534 ft | 162 kts | 172° |
| 2026-05-05 14:51 | 40.84084 | 14.26913 | 3162 ft | 162 kts | 173° |
| 2026-05-05 14:51 | 40.82960 | 14.27067 | 3770 ft | 167 kts | 174° |
| 2026-05-05 14:52 | 40.81732 | 14.27230 | 4164 ft | 186 kts | 175° |
| 2026-05-05 14:52 | 40.80418 | 14.27402 | 4825 ft | 192 kts | 176° |
| 2026-05-05 14:52 | 40.79083 | 14.27576 | 5514 ft | 194 kts | 177° |
| 2026-05-05 14:52 | 40.77736 | 14.27750 | 6109 ft | 195 kts | 178° |
| 2026-05-05 14:53 | 40.76375 | 14.27925 | 6648 ft | 198 kts | 178° |
| 2026-05-05 14:53 | 40.75000 | 14.28101 | 7151 ft | 199 kts | 178° |
| 2026-05-05 14:53 | 40.73614 | 14.28280 | 7665 ft | 201 kts | 178° |
| 2026-05-05 14:53 | 40.72231 | 14.28438 | 8215 ft | 203 kts | 184° |
| 2026-05-05 14:54 | 40.70866 | 14.28095 | 8776 ft | 200 kts | 206° |
| 2026-05-05 14:54 | 40.69665 | 14.27071 | 9086 ft | 216 kts | 224° |
| 2026-05-05 14:54 | 40.68485 | 14.25689 | 9285 ft | 239 kts | 223° |
| 2026-05-05 14:54 | 40.67169 | 14.24168 | 9519 ft | 264 kts | 223° |
| 2026-05-05 14:55 | 40.65752 | 14.22544 | 10046 ft | 274 kts | 223° |
| 2026-05-05 14:55 | 40.64282 | 14.20868 | 10365 ft | 289 kts | 223° |
| 2026-05-05 14:55 | 40.62707 | 14.19077 | 10492 ft | 308 kts | 223° |
| 2026-05-05 14:55 | 40.61059 | 14.17204 | 10612 ft | 326 kts | 223° |
| 2026-05-05 14:56 | 40.59300 | 14.15203 | 10732 ft | 343 kts | 222° |
| 2026-05-05 14:56 | 40.57465 | 14.13115 | 10977 ft | 354 kts | 222° |
| 2026-05-05 14:56 | 40.55588 | 14.10985 | 11447 ft | 358 kts | 222° |
| 2026-05-05 14:56 | 40.53690 | 14.08840 | 11932 ft | 362 kts | 222° |
| 2026-05-05 14:57 | 40.51776 | 14.06668 | 12441 ft | 365 kts | 224° |
| 2026-05-05 14:57 | 40.50156 | 14.04106 | 12906 ft | 366 kts | 241° |
| 2026-05-05 14:57 | 40.49147 | 14.01029 | 13388 ft | 369 kts | 250° |
| 2026-05-05 14:57 | 40.48256 | 13.97856 | 13867 ft | 372 kts | 250° |
| 2026-05-05 14:58 | 40.47372 | 13.94693 | 14299 ft | 375 kts | 250° |
| 2026-05-05 14:58 | 40.46470 | 13.91462 | 14767 ft | 378 kts | 250° |
| 2026-05-05 14:58 | 40.45562 | 13.88219 | 15259 ft | 380 kts | 250° |
| 2026-05-05 14:58 | 40.44646 | 13.84959 | 15721 ft | 382 kts | 250° |
| 2026-05-05 14:59 | 40.43720 | 13.81688 | 16211 ft | 383 kts | 250° |
| 2026-05-05 14:59 | 40.42790 | 13.78415 | 16664 ft | 384 kts | 249° |
| 2026-05-05 14:59 | 40.41853 | 13.75120 | 17103 ft | 386 kts | 250° |
| 2026-05-05 14:59 | 40.40928 | 13.71798 | 17543 ft | 388 kts | 250° |
| 2026-05-05 15:00 | 40.40015 | 13.68457 | 17971 ft | 390 kts | 250° |
| 2026-05-05 15:00 | 40.39412 | 13.66233 | 18239 ft | 392 kts | 250° |
| 2026-05-05 15:00 | 40.38201 | 13.61751 | 18729 ft | 394 kts | 250° |
| 2026-05-05 15:00 | 40.37281 | 13.58356 | 19102 ft | 396 kts | 250° |
| 2026-05-05 15:01 | 40.36353 | 13.54953 | 19469 ft | 397 kts | 250° |
| 2026-05-05 15:01 | 40.35415 | 13.51535 | 19850 ft | 399 kts | 250° |
| 2026-05-05 15:01 | 40.34470 | 13.48109 | 20228 ft | 400 kts | 250° |
| 2026-05-05 15:01 | 40.33524 | 13.44673 | 20602 ft | 402 kts | 251° |
| 2026-05-05 15:02 | 40.32582 | 13.41265 | 20939 ft | 404 kts | 251° |
| 2026-05-05 15:02 | 40.31621 | 13.37798 | 21296 ft | 406 kts | 251° |
| 2026-05-05 15:02 | 40.30682 | 13.34305 | 21649 ft | 407 kts | 254° |
| 2026-05-05 15:02 | 40.30105 | 13.30677 | 22001 ft | 408 kts | 264° |
| 2026-05-05 15:03 | 40.30022 | 13.26966 | 22353 ft | 409 kts | 273° |
| 2026-05-05 15:03 | 40.30247 | 13.23246 | 22698 ft | 411 kts | 274° |
| 2026-05-05 15:03 | 40.30473 | 13.19508 | 23045 ft | 412 kts | 274° |
| 2026-05-05 15:03 | 40.30692 | 13.15765 | 23394 ft | 413 kts | 274° |
| 2026-05-05 15:04 | 40.30910 | 13.12002 | 23735 ft | 414 kts | 274° |
| 2026-05-05 15:04 | 40.31122 | 13.08292 | 24080 ft | 414 kts | 274° |
| 2026-05-05 15:04 | 40.31336 | 13.04533 | 24390 ft | 414 kts | 274° |
| 2026-05-05 15:04 | 40.31551 | 13.00759 | 24684 ft | 415 kts | 274° |
| 2026-05-05 15:05 | 40.31981 | 12.93191 | 25248 ft | 418 kts | 274° |
| 2026-05-05 15:05 | 40.32194 | 12.89385 | 25524 ft | 419 kts | 274° |
| 2026-05-05 15:05 | 40.32408 | 12.85572 | 25797 ft | 420 kts | 274° |
| 2026-05-05 15:06 | 40.32621 | 12.81751 | 26057 ft | 421 kts | 274° |
| 2026-05-05 15:06 | 40.32832 | 12.77968 | 26310 ft | 422 kts | 273° |
| 2026-05-05 15:06 | 40.33043 | 12.74127 | 26566 ft | 423 kts | 273° |
| 2026-05-05 15:06 | 40.33254 | 12.70273 | 26805 ft | 424 kts | 273° |
| 2026-05-05 15:07 | 40.33464 | 12.66413 | 27027 ft | 425 kts | 273° |
| 2026-05-05 15:07 | 40.33671 | 12.62541 | 27236 ft | 426 kts | 273° |
| 2026-05-05 15:07 | 40.33877 | 12.58666 | 27437 ft | 427 kts | 273° |
| 2026-05-05 15:07 | 40.34084 | 12.54783 | 27682 ft | 427 kts | 273° |
| 2026-05-05 15:08 | 40.34290 | 12.50910 | 27975 ft | 425 kts | 273° |
| 2026-05-05 15:08 | 40.34495 | 12.47051 | 28265 ft | 424 kts | 273° |
| 2026-05-05 15:08 | 40.34692 | 12.43255 | 28551 ft | 423 kts | 272° |
| 2026-05-05 15:08 | 40.34891 | 12.39414 | 28840 ft | 421 kts | 272° |
| 2026-05-05 15:09 | 40.35089 | 12.35591 | 29139 ft | 420 kts | 272° |
| 2026-05-05 15:09 | 40.35283 | 12.31774 | 29433 ft | 419 kts | 272° |
| 2026-05-05 15:09 | 40.35474 | 12.27975 | 29723 ft | 417 kts | 272° |
| 2026-05-05 15:09 | 40.35665 | 12.24185 | 30012 ft | 416 kts | 272° |
| 2026-05-05 15:10 | 40.35857 | 12.20404 | 30266 ft | 415 kts | 272° |
| 2026-05-05 15:10 | 40.36046 | 12.16635 | 30498 ft | 414 kts | 272° |
| 2026-05-05 15:10 | 40.36234 | 12.12872 | 30725 ft | 413 kts | 272° |
| 2026-05-05 15:10 | 40.36418 | 12.09160 | 30946 ft | 413 kts | 272° |
| 2026-05-05 15:11 | 40.36603 | 12.05416 | 31167 ft | 412 kts | 272° |
| 2026-05-05 15:11 | 40.36786 | 12.01672 | 31400 ft | 411 kts | 272° |
| 2026-05-05 15:11 | 40.36969 | 11.97939 | 31646 ft | 409 kts | 272° |
| 2026-05-05 15:11 | 40.37147 | 11.94214 | 31880 ft | 408 kts | 272° |
| 2026-05-05 15:12 | 40.37322 | 11.90506 | 32108 ft | 408 kts | 272° |
| 2026-05-05 15:12 | 40.37496 | 11.86798 | 32325 ft | 407 kts | 272° |
| 2026-05-05 15:12 | 40.37668 | 11.83100 | 32542 ft | 406 kts | 272° |
| 2026-05-05 15:12 | 40.37841 | 11.79409 | 32755 ft | 405 kts | 272° |
| 2026-05-05 15:13 | 40.38013 | 11.75768 | 32961 ft | 405 kts | 272° |
| 2026-05-05 15:13 | 40.38351 | 11.68403 | 33035 ft | 404 kts | 272° |
| 2026-05-05 15:14 | 40.38869 | 11.61087 | 33035 ft | 404 kts | 278° |
| 2026-05-05 15:14 | 40.39875 | 11.53843 | 33034 ft | 404 kts | 278° |
| 2026-05-05 15:15 | 40.40873 | 11.46651 | 33030 ft | 403 kts | 278° |
| 2026-05-05 15:15 | 40.41874 | 11.39404 | 33031 ft | 404 kts | 278° |
| 2026-05-05 15:16 | 40.42871 | 11.32157 | 33037 ft | 404 kts | 278° |
| 2026-05-05 15:16 | 40.43859 | 11.24899 | 33052 ft | 404 kts | 277° |
| 2026-05-05 15:17 | 40.44840 | 11.17646 | 33048 ft | 403 kts | 277° |
| 2026-05-05 15:17 | 40.45810 | 11.10459 | 33047 ft | 402 kts | 277° |
| 2026-05-05 15:18 | 40.46777 | 11.03225 | 33045 ft | 402 kts | 277° |
| 2026-05-05 15:18 | 40.47740 | 10.95993 | 33037 ft | 402 kts | 277° |
| 2026-05-05 15:19 | 40.48703 | 10.88766 | 33036 ft | 402 kts | 277° |
| 2026-05-05 15:19 | 40.49659 | 10.81587 | 33028 ft | 402 kts | 277° |
| 2026-05-05 15:20 | 40.50608 | 10.74359 | 33029 ft | 402 kts | 277° |
| 2026-05-05 15:20 | 40.51555 | 10.67121 | 33027 ft | 402 kts | 277° |
| 2026-05-05 15:21 | 40.52503 | 10.59882 | 33030 ft | 402 kts | 277° |
| 2026-05-05 15:21 | 40.53437 | 10.52682 | 33034 ft | 402 kts | 277° |
| 2026-05-05 15:22 | 40.54366 | 10.45438 | 33031 ft | 402 kts | 277° |
| 2026-05-05 15:22 | 40.55299 | 10.38188 | 33021 ft | 402 kts | 276° |
| 2026-05-05 15:23 | 40.56223 | 10.30940 | 33019 ft | 402 kts | 276° |
| 2026-05-05 15:23 | 40.57144 | 10.23689 | 33016 ft | 402 kts | 276° |
| 2026-05-05 15:24 | 40.58050 | 10.16489 | 33027 ft | 402 kts | 276° |
| 2026-05-05 15:24 | 40.58958 | 10.09240 | 33020 ft | 402 kts | 276° |
| 2026-05-05 15:25 | 40.59867 | 10.01991 | 33017 ft | 401 kts | 276° |
| 2026-05-05 15:25 | 40.60765 | 9.94740 | 33008 ft | 401 kts | 276° |
| 2026-05-05 15:26 | 40.61653 | 9.87542 | 33008 ft | 401 kts | 276° |
| 2026-05-05 15:26 | 40.62547 | 9.80297 | 33020 ft | 401 kts | 276° |
| 2026-05-05 15:27 | 40.63436 | 9.73045 | 33019 ft | 401 kts | 276° |
| 2026-05-05 15:27 | 40.64318 | 9.65786 | 33011 ft | 401 kts | 275° |
| 2026-05-05 15:28 | 40.65189 | 9.58576 | 33010 ft | 401 kts | 275° |
| 2026-05-05 15:28 | 40.66082 | 9.51322 | 33009 ft | 402 kts | 276° |
| 2026-05-05 15:29 | 40.67135 | 9.44084 | 32995 ft | 402 kts | 277° |
| 2026-05-05 15:29 | 40.68233 | 9.36850 | 32985 ft | 403 kts | 277° |
| 2026-05-05 15:30 | 40.69304 | 9.29591 | 32983 ft | 404 kts | 277° |
| 2026-05-05 15:30 | 40.70340 | 9.22366 | 32986 ft | 404 kts | 277° |
| 2026-05-05 15:31 | 40.71373 | 9.15083 | 32991 ft | 404 kts | 276° |
| 2026-05-05 15:31 | 40.72406 | 9.07796 | 33001 ft | 405 kts | 276° |
| 2026-05-05 15:32 | 40.73442 | 9.00497 | 32993 ft | 405 kts | 276° |
| 2026-05-05 15:32 | 40.74473 | 8.93199 | 32989 ft | 405 kts | 276° |
| 2026-05-05 15:33 | 40.75486 | 8.85946 | 32992 ft | 405 kts | 276° |
| 2026-05-05 15:33 | 40.76507 | 8.78643 | 32988 ft | 405 kts | 276° |
| 2026-05-05 15:34 | 40.77528 | 8.71337 | 33011 ft | 405 kts | 276° |
| 2026-05-05 15:34 | 40.78542 | 8.64030 | 33003 ft | 404 kts | 275° |
| 2026-05-05 15:35 | 40.79541 | 8.56794 | 32997 ft | 404 kts | 275° |
| 2026-05-05 15:35 | 40.80532 | 8.49507 | 32993 ft | 403 kts | 275° |
| 2026-05-05 15:36 | 40.81522 | 8.42234 | 32994 ft | 403 kts | 275° |
| 2026-05-05 15:36 | 40.82511 | 8.34953 | 32988 ft | 403 kts | 275° |
| 2026-05-05 15:37 | 40.83489 | 8.27731 | 33012 ft | 402 kts | 274° |
| 2026-05-05 15:37 | 40.84458 | 8.20452 | 32996 ft | 402 kts | 274° |
| 2026-05-05 15:38 | 40.85418 | 8.13180 | 32993 ft | 402 kts | 274° |
| 2026-05-05 15:38 | 40.85965 | 8.05894 | 32987 ft | 398 kts | 269° |
| 2026-05-05 15:39 | 40.86301 | 7.98605 | 32982 ft | 398 kts | 269° |
| 2026-05-05 15:39 | 40.86771 | 7.91364 | 33007 ft | 399 kts | 270° |
| 2026-05-05 15:40 | 40.87317 | 7.84086 | 32995 ft | 398 kts | 270° |
| 2026-05-05 15:40 | 40.87836 | 7.76815 | 32988 ft | 397 kts | 270° |
| 2026-05-05 15:41 | 40.88329 | 7.69546 | 32981 ft | 397 kts | 270° |
| 2026-05-05 15:41 | 40.88814 | 7.62283 | 32978 ft | 397 kts | 270° |
| 2026-05-05 15:42 | 40.89288 | 7.55068 | 32997 ft | 397 kts | 269° |
| 2026-05-05 15:42 | 40.89767 | 7.47800 | 32991 ft | 397 kts | 269° |
| 2026-05-05 15:43 | 40.90244 | 7.40535 | 32982 ft | 397 kts | 269° |
| 2026-05-05 15:43 | 40.90714 | 7.33264 | 32977 ft | 397 kts | 269° |
| 2026-05-05 15:44 | 40.91174 | 7.26042 | 32975 ft | 397 kts | 269° |
| 2026-05-05 15:44 | 40.91629 | 7.18772 | 32971 ft | 397 kts | 269° |
| 2026-05-05 15:45 | 40.92085 | 7.11497 | 32963 ft | 397 kts | 269° |
| 2026-05-05 15:45 | 40.92537 | 7.04222 | 32965 ft | 397 kts | 269° |
| 2026-05-05 15:46 | 40.92981 | 6.96997 | 32970 ft | 397 kts | 269° |
| 2026-05-05 15:46 | 40.93424 | 6.89721 | 32963 ft | 397 kts | 269° |
| 2026-05-05 15:47 | 40.93859 | 6.82449 | 32978 ft | 397 kts | 268° |
| 2026-05-05 15:47 | 40.94291 | 6.75163 | 32968 ft | 397 kts | 268° |
| 2026-05-05 15:48 | 40.94714 | 6.67879 | 32963 ft | 397 kts | 268° |
| 2026-05-05 15:48 | 40.95132 | 6.60642 | 32960 ft | 397 kts | 268° |
| 2026-05-05 15:49 | 40.95551 | 6.53350 | 32957 ft | 398 kts | 268° |
| 2026-05-05 15:49 | 40.95964 | 6.46059 | 32972 ft | 398 kts | 268° |
| 2026-05-05 15:50 | 40.96371 | 6.38759 | 32967 ft | 398 kts | 268° |
| 2026-05-05 15:50 | 40.96776 | 6.31502 | 32962 ft | 398 kts | 268° |
| 2026-05-05 15:51 | 40.97184 | 6.24193 | 32957 ft | 398 kts | 268° |
| 2026-05-05 15:51 | 40.97584 | 6.16877 | 32954 ft | 399 kts | 268° |
| 2026-05-05 15:52 | 40.97982 | 6.09561 | 32951 ft | 398 kts | 268° |
| 2026-05-05 15:52 | 40.98372 | 6.02244 | 32964 ft | 399 kts | 268° |
| 2026-05-05 15:53 | 40.98747 | 5.94975 | 32951 ft | 399 kts | 268° |
| 2026-05-05 15:53 | 40.99120 | 5.87647 | 32949 ft | 399 kts | 268° |
| 2026-05-05 15:54 | 40.99505 | 5.80319 | 32946 ft | 399 kts | 268° |
| 2026-05-05 15:54 | 40.99873 | 5.72989 | 32945 ft | 399 kts | 268° |
| 2026-05-05 15:55 | 41.00238 | 5.65658 | 32961 ft | 399 kts | 267° |
| 2026-05-05 15:55 | 41.00592 | 5.58374 | 32954 ft | 399 kts | 267° |
| 2026-05-05 15:56 | 41.00944 | 5.51035 | 32948 ft | 399 kts | 267° |
| 2026-05-05 15:56 | 41.01295 | 5.43702 | 32944 ft | 399 kts | 267° |
| 2026-05-05 15:57 | 41.01647 | 5.36370 | 32943 ft | 399 kts | 267° |
| 2026-05-05 15:57 | 41.02030 | 5.29082 | 32949 ft | 398 kts | 267° |
| 2026-05-05 15:58 | 41.02423 | 5.21770 | 32946 ft | 398 kts | 267° |
| 2026-05-05 15:58 | 41.02802 | 5.14464 | 32941 ft | 398 kts | 267° |
| 2026-05-05 15:59 | 41.03172 | 5.07162 | 32940 ft | 397 kts | 267° |
| 2026-05-05 15:59 | 41.03538 | 4.99907 | 32938 ft | 397 kts | 267° |
| 2026-05-05 16:00 | 41.03896 | 4.92619 | 32945 ft | 395 kts | 267° |
| 2026-05-05 16:00 | 41.04238 | 4.85386 | 32939 ft | 393 kts | 266° |
| 2026-05-05 16:01 | 41.04576 | 4.78174 | 32938 ft | 393 kts | 267° |
| 2026-05-05 16:01 | 41.05162 | 4.70945 | 32930 ft | 396 kts | 270° |
| 2026-05-05 16:02 | 41.05986 | 4.63764 | 32930 ft | 397 kts | 271° |
| 2026-05-05 16:02 | 41.06840 | 4.56533 | 32961 ft | 397 kts | 271° |
| 2026-05-05 16:03 | 41.07637 | 4.49336 | 32919 ft | 394 kts | 270° |
| 2026-05-05 16:03 | 41.08021 | 4.45736 | 32214 ft | 397 kts | 270° |
| 2026-05-05 16:03 | 41.08404 | 4.42074 | 30903 ft | 403 kts | 271° |
| 2026-05-05 16:03 | 41.08787 | 4.38435 | 29171 ft | 405 kts | 271° |
| 2026-05-05 16:04 | 41.09180 | 4.34755 | 28364 ft | 400 kts | 271° |
| 2026-05-05 16:04 | 41.09572 | 4.31143 | 27725 ft | 395 kts | 271° |
| 2026-05-05 16:04 | 41.09956 | 4.27531 | 26861 ft | 396 kts | 271° |
| 2026-05-05 16:04 | 41.10337 | 4.23903 | 26027 ft | 397 kts | 272° |
| 2026-05-05 16:05 | 41.10717 | 4.20311 | 25509 ft | 390 kts | 272° |
| 2026-05-05 16:05 | 41.11092 | 4.16768 | 24945 ft | 386 kts | 272° |
| 2026-05-05 16:05 | 41.11459 | 4.13261 | 24365 ft | 381 kts | 272° |
| 2026-05-05 16:05 | 41.11817 | 4.09801 | 23806 ft | 377 kts | 272° |
| 2026-05-05 16:06 | 41.12162 | 4.06420 | 23219 ft | 373 kts | 272° |
| 2026-05-05 16:06 | 41.12511 | 4.03021 | 22652 ft | 371 kts | 272° |
| 2026-05-05 16:06 | 41.12861 | 3.99635 | 22107 ft | 370 kts | 272° |
| 2026-05-05 16:06 | 41.13210 | 3.96264 | 21564 ft | 368 kts | 272° |
| 2026-05-05 16:07 | 41.13555 | 3.92908 | 21031 ft | 367 kts | 272° |
| 2026-05-05 16:07 | 41.13896 | 3.89562 | 20490 ft | 365 kts | 273° |
| 2026-05-05 16:07 | 41.14230 | 3.86265 | 20184 ft | 354 kts | 273° |
| 2026-05-05 16:07 | 41.14556 | 3.83079 | 19936 ft | 343 kts | 272° |
| 2026-05-05 16:08 | 41.14873 | 3.79963 | 19710 ft | 339 kts | 272° |
| 2026-05-05 16:08 | 41.15186 | 3.76869 | 19466 ft | 337 kts | 272° |
| 2026-05-05 16:08 | 41.15494 | 3.73835 | 19229 ft | 336 kts | 272° |
| 2026-05-05 16:08 | 41.15801 | 3.70758 | 18990 ft | 336 kts | 272° |
| 2026-05-05 16:09 | 41.16106 | 3.67693 | 18752 ft | 335 kts | 272° |
| 2026-05-05 16:09 | 41.16410 | 3.64627 | 18402 ft | 335 kts | 272° |
| 2026-05-05 16:09 | 41.16714 | 3.61573 | 17969 ft | 333 kts | 273° |
| 2026-05-05 16:09 | 41.17015 | 3.58531 | 17545 ft | 332 kts | 273° |
| 2026-05-05 16:10 | 41.17314 | 3.55501 | 17139 ft | 331 kts | 273° |
| 2026-05-05 16:10 | 41.17611 | 3.52482 | 16729 ft | 330 kts | 272° |
| 2026-05-05 16:10 | 41.17907 | 3.49468 | 16324 ft | 329 kts | 273° |
| 2026-05-05 16:10 | 41.18199 | 3.46507 | 15926 ft | 328 kts | 273° |
| 2026-05-05 16:11 | 41.18493 | 3.43512 | 15526 ft | 327 kts | 273° |
| 2026-05-05 16:11 | 41.19370 | 3.34586 | 14325 ft | 324 kts | 273° |
| 2026-05-05 16:12 | 41.19660 | 3.31625 | 13927 ft | 323 kts | 273° |
| 2026-05-05 16:12 | 41.20231 | 3.25732 | 13100 ft | 321 kts | 273° |
| 2026-05-05 16:13 | 41.21068 | 3.17015 | 11925 ft | 317 kts | 273° |
| 2026-05-05 16:13 | 41.21336 | 3.14120 | 11537 ft | 315 kts | 273° |
| 2026-05-05 16:13 | 41.21592 | 3.11233 | 11152 ft | 314 kts | 273° |
| 2026-05-05 16:14 | 41.22094 | 3.05497 | 10388 ft | 311 kts | 273° |
| 2026-05-05 16:14 | 41.22582 | 2.99981 | 10039 ft | 288 kts | 273° |
| 2026-05-05 16:15 | 41.23031 | 2.94871 | 9656 ft | 277 kts | 272° |
| 2026-05-05 16:15 | 41.23468 | 2.89786 | 9401 ft | 277 kts | 272° |
| 2026-05-05 16:16 | 41.23908 | 2.84716 | 9142 ft | 276 kts | 273° |
| 2026-05-05 16:16 | 41.24340 | 2.79729 | 8876 ft | 263 kts | 273° |
| 2026-05-05 16:17 | 41.24743 | 2.75098 | 8615 ft | 242 kts | 272° |
| 2026-05-05 16:17 | 41.24927 | 2.72918 | 8496 ft | 240 kts | 272° |
| 2026-05-05 16:18 | 41.25297 | 2.68534 | 8236 ft | 238 kts | 272° |
| 2026-05-05 16:18 | 41.25468 | 2.66344 | 8125 ft | 237 kts | 268° |
| 2026-05-05 16:18 | 41.25360 | 2.62015 | 7872 ft | 234 kts | 264° |
| 2026-05-05 16:19 | 41.25291 | 2.59856 | 7744 ft | 233 kts | 264° |
| 2026-05-05 16:19 | 41.25225 | 2.57706 | 7624 ft | 233 kts | 264° |
| 2026-05-05 16:19 | 41.25093 | 2.53439 | 7377 ft | 232 kts | 265° |
| 2026-05-05 16:20 | 41.25336 | 2.49186 | 7131 ft | 237 kts | 292° |
| 2026-05-05 16:20 | 41.27968 | 2.46625 | 6886 ft | 253 kts | 352° |
| 2026-05-05 16:21 | 41.31249 | 2.48235 | 6647 ft | 261 kts | 32° |
| 2026-05-05 16:22 | 41.35773 | 2.52207 | 6289 ft | 258 kts | 32° |
| 2026-05-05 16:22 | 41.38278 | 2.55533 | 6029 ft | 257 kts | 58° |
| 2026-05-05 16:23 | 41.39831 | 2.59790 | 5924 ft | 257 kts | 66° |
| 2026-05-05 16:23 | 41.40564 | 2.61952 | 5785 ft | 256 kts | 66° |
| 2026-05-05 16:23 | 41.42536 | 2.65788 | 5518 ft | 253 kts | 32° |
| 2026-05-05 16:24 | 41.44138 | 2.66677 | 5448 ft | 250 kts | 6° |
| 2026-05-05 16:24 | 41.45842 | 2.66573 | 5406 ft | 244 kts | 340° |
| 2026-05-05 16:24 | 41.48306 | 2.63854 | 5303 ft | 233 kts | 291° |
| 2026-05-05 16:25 | 41.48704 | 2.61793 | 5250 ft | 229 kts | 269° |
| 2026-05-05 16:25 | 41.47784 | 2.57845 | 5161 ft | 226 kts | 242° |
| 2026-05-05 16:25 | 41.47064 | 2.55976 | 5106 ft | 226 kts | 242° |
| 2026-05-05 16:26 | 41.45639 | 2.52231 | 5006 ft | 226 kts | 243° |
| 2026-05-05 16:26 | 41.44216 | 2.48486 | 4908 ft | 226 kts | 243° |
| 2026-05-05 16:27 | 41.43504 | 2.46615 | 4860 ft | 226 kts | 242° |
| 2026-05-05 16:27 | 41.42791 | 2.44743 | 4813 ft | 226 kts | 243° |
| 2026-05-05 16:27 | 41.42078 | 2.42874 | 4696 ft | 226 kts | 242° |
| 2026-05-05 16:27 | 41.41276 | 2.41121 | 4519 ft | 225 kts | 234° |
| 2026-05-05 16:28 | 41.40460 | 2.39346 | 4329 ft | 225 kts | 242° |
| 2026-05-05 16:28 | 41.39785 | 2.37472 | 4128 ft | 224 kts | 245° |
| 2026-05-05 16:28 | 41.39144 | 2.35577 | 3997 ft | 225 kts | 245° |
| 2026-05-05 16:28 | 41.38505 | 2.33683 | 3764 ft | 224 kts | 245° |
| 2026-05-05 16:29 | 41.37866 | 2.31798 | 3484 ft | 223 kts | 245° |
| 2026-05-05 16:29 | 41.37228 | 2.29916 | 3196 ft | 222 kts | 245° |
| 2026-05-05 16:29 | 41.36601 | 2.28069 | 2904 ft | 217 kts | 245° |
| 2026-05-05 16:29 | 41.35987 | 2.26262 | 2607 ft | 212 kts | 244° |
| 2026-05-05 16:30 | 41.35392 | 2.24513 | 2342 ft | 208 kts | 244° |
| 2026-05-05 16:30 | 41.34809 | 2.22799 | 2071 ft | 198 kts | 244° |
| 2026-05-05 16:30 | 41.34255 | 2.21170 | 1801 ft | 189 kts | 243° |
| 2026-05-05 16:30 | 41.33897 | 2.20119 | 1629 ft | 179 kts | 244° |
| 2026-05-05 16:31 | 41.33256 | 2.18238 | 1340 ft | 159 kts | 244° |
| 2026-05-05 16:31 | 41.32817 | 2.16949 | 1122 ft | 149 kts | 243° |
| 2026-05-05 16:31 | 41.32539 | 2.16134 | 1007 ft | 144 kts | 245° |
| 2026-05-05 16:31 | 41.32129 | 2.14936 | 810 ft | 142 kts | 244° |
| 2026-05-05 16:32 | 41.31720 | 2.13738 | 625 ft | 143 kts | 244° |
| 2026-05-05 16:32 | 41.31308 | 2.12532 | 409 ft | 144 kts | 244° |
| 2026-05-05 16:32 | 41.30762 | 2.10924 | 163 ft | 144 kts | 244° |
| 2026-05-05 16:32 | 41.30350 | 2.09718 | 26 ft | 140 kts | 244° |
| 2026-05-05 16:33 | 41.30099 | 2.08993 | 18 ft | 113 kts | 246° |
| 2026-05-05 16:33 | 41.29831 | 2.08212 | 21 ft | 68 kts | 246° |
| 2026-05-05 16:33 | 41.29757 | 2.07889 | 16 ft | 16 kts | 266° |
| 2026-05-05 16:33 | 41.29750 | 2.07785 | 16 ft | 11 kts | 266° |
| 2026-05-05 16:34 | 41.29760 | 2.07676 | 14 ft | 13 kts | 281° |
| 2026-05-05 16:34 | 41.29792 | 2.07620 | 14 ft | 0 kts | 333° |
| 2026-05-05 16:35 | 41.29793 | 2.07620 | 14 ft | 1 kts | 333° |
| 2026-05-05 16:35 | 41.29816 | 2.07604 | 14 ft | 5 kts | 333° |
| 2026-05-05 16:36 | 41.29845 | 2.07544 | 16 ft | 13 kts | 269° |
| 2026-05-05 16:36 | 41.29810 | 2.07414 | 16 ft | 16 kts | 245° |
| 2026-05-05 16:36 | 41.29763 | 2.07284 | 16 ft | 13 kts | 244° |
| 2026-05-05 16:36 | 41.29793 | 2.07196 | 15 ft | 13 kts | 337° |
| 2026-05-05 16:37 | 41.29873 | 2.07148 | 18 ft | 12 kts | 335° |
| 2026-05-05 16:37 | 41.29928 | 2.07100 | 20 ft | 7 kts | 301° |
| 2026-05-05 16:37 | 41.29922 | 2.07035 | 21 ft | 8 kts | 247° |
| 2026-05-05 16:37 | 41.29901 | 2.06973 | 20 ft | 7 kts | 245° |
| 2026-05-05 16:38 | 41.29880 | 2.06911 | 22 ft | 9 kts | 246° |
| 2026-05-05 16:38 | 41.29861 | 2.06871 | 19 ft | 3 kts | 217° |
| 2026-05-05 16:38 | 41.29839 | 2.06874 | 19 ft | 5 kts | 167° |
| 2026-05-05 16:38 | 41.29801 | 2.06896 | 18 ft | 6 kts | 155° |
| 2026-05-05 16:39 | 41.29785 | 2.06906 | 18 ft | 0 kts | 155° |